Islamorada, FL

5:33 AM EST on January 25, 2015 (GMT -0500)
Keith & Patty's Islamorada Weather | Change Station
CLOSE
Current Station
Personal Weather Station
Location: Islamorada, FL
Elevation: 5 ft
Nearby Weather Stations

Elev 5 ft 24.92 °N, 80.63 °W | Updated 50 seconds ago

Clear
Clear
57.9 °F
Feels Like 57.9 °F
N
4.0
Wind Variable Wind from East
Gusts 16.0 mph

Today
High -- | Low -- °F
--% Chance of Precip.
Yesterday
High -- | Low -- °F
Precip. -- in
7:07 AM 6:02 PM
Waxing Crescent, 31% visible
Pressure 30.05 in
Visibility 10.0 miles
Clouds Clear
Dew Point 53 °F
Humidity 83%
Rainfall 0.00 in
Snow Depth Not available.
UV 0 out of 12
Pollen 6.10 out of 12
Air Quality Not available.
Flu Activity Not available.
METAR KHST 250958Z AUTO 30008KT 10SM CLR 11/09 A3004 RMK AO2 SLP176 T01100092

More Conditions Fewer Conditions

Pressure 30.05 in
Visibility 10.0 miles
Clouds Clear
Dew Point 53 °F
Humidity 83%
Rainfall 0.00 in
Snow Depth Not available.
UV 0 out of 12
Pollen 6.10 out of 12
Air Quality Not available.
Flu Activity Not available.
METAR KHST 250958Z AUTO 30008KT 10SM CLR 11/09 A3004 RMK AO2 SLP176 T01100092

More Conditions Fewer Conditions

10-Day Weather Forecast

Almanac

Astronomy

Jan. 25, 2015 Rise Set
Actual Time
Civil Twilight
Nautical Twilight
Astronomical Twilight
Moon
Length of Visible Light
Length of Day
Tomorrow will be .
, % of the Moon is Illuminated

Today's Extremes

State Highs State Lows

Community

WunderPhotos

Upload Photos

1,789,861 photos uploaded!

WunderBlogs® & News

Nearby

Air Quality

  Air Quality AQ Index Pollutant
Not available.

Snow Depth

Station Depth Elevation

Earthquake Activity

City Distance Mag. Time & Date
Minimum magnitude displayed is 2.5.

Coastal Water Temperatures

Place Temperature

Nearby Weather Stations